createdAt,value
2022-09-28T00:00:07.576Z,11.90
2022-09-28T00:02:35.771Z,11.90
2022-09-28T00:05:03.659Z,11.90
2022-09-28T00:07:31.436Z,12.00
2022-09-28T00:10:00.752Z,12.00
2022-09-28T00:12:29.794Z,12.00
2022-09-28T00:14:57.572Z,12.00
2022-09-28T00:17:26.444Z,12.00
2022-09-28T00:19:54.251Z,12.10
2022-09-28T00:22:21.978Z,12.10
2022-09-28T00:24:49.722Z,12.10
2022-09-28T00:27:18.811Z,12.10
2022-09-28T00:29:46.595Z,12.10
2022-09-28T00:32:15.542Z,12.10
2022-09-28T00:34:45.893Z,12.20
2022-09-28T00:37:15.199Z,12.10
2022-09-28T00:39:43.950Z,12.10
2022-09-28T00:42:14.356Z,12.10
2022-09-28T00:44:47.974Z,12.10
2022-09-28T00:47:54.188Z,12.10
2022-09-28T00:50:26.609Z,12.10
2022-09-28T00:52:58.468Z,12.10
2022-09-28T00:55:33.670Z,12.10
2022-09-28T00:58:04.801Z,12.10
2022-09-28T01:00:34.015Z,12.10
2022-09-28T01:03:02.217Z,12.10
2022-09-28T01:05:30.064Z,12.00
2022-09-28T01:07:58.506Z,12.10
2022-09-28T01:10:26.478Z,12.10
2022-09-28T01:12:55.959Z,12.10
2022-09-28T01:15:25.911Z,12.10
2022-09-28T01:18:05.463Z,12.10
2022-09-28T01:20:55.759Z,12.10
2022-09-28T01:24:09.530Z,12.10
2022-09-28T01:26:49.684Z,12.10
2022-09-28T01:29:23.542Z,12.10
2022-09-28T01:31:55.336Z,12.10
2022-09-28T01:34:29.851Z,12.10
2022-09-28T01:37:01.923Z,12.00
2022-09-28T01:39:33.776Z,12.00
2022-09-28T01:42:06.142Z,12.00
2022-09-28T01:44:39.786Z,12.00
2022-09-28T01:47:10.608Z,12.00
2022-09-28T01:49:42.633Z,12.00
2022-09-28T01:52:15.978Z,12.00
2022-09-28T01:54:48.212Z,12.00
2022-09-28T01:57:22.900Z,12.10
2022-09-28T01:59:59.762Z,12.10
2022-09-28T02:02:33.188Z,12.10
2022-09-28T02:05:06.292Z,12.00
2022-09-28T02:07:39.388Z,12.00
2022-09-28T02:10:13.088Z,11.90
2022-09-28T02:12:46.039Z,11.80
2022-09-28T02:15:18.977Z,11.70
2022-09-28T02:17:47.250Z,11.70
2022-09-28T02:20:15.816Z,11.60
2022-09-28T02:22:48.559Z,11.60
2022-09-28T02:25:25.558Z,11.70
2022-09-28T02:27:59.087Z,11.70
2022-09-28T02:30:27.046Z,11.70
2022-09-28T02:32:58.831Z,11.80
2022-09-28T02:35:26.625Z,11.80
2022-09-28T02:37:55.684Z,11.70
2022-09-28T02:40:26.167Z,11.70
2022-09-28T02:43:02.800Z,11.80
2022-09-28T02:45:51.797Z,11.80
2022-09-28T02:48:43.067Z,11.70
2022-09-28T02:51:21.399Z,11.80
2022-09-28T02:54:18.894Z,11.90
2022-09-28T02:56:57.477Z,11.90
2022-09-28T02:59:40.808Z,11.70
2022-09-28T03:02:19.732Z,11.80
2022-09-28T03:04:57.846Z,11.80
2022-09-28T03:07:30.116Z,11.70
2022-09-28T03:10:04.042Z,11.70
2022-09-28T03:12:33.224Z,11.70
2022-09-28T03:15:14.585Z,11.70
2022-09-28T03:17:42.354Z,11.70
2022-09-28T03:20:11.705Z,11.80
2022-09-28T03:22:39.921Z,11.70
2022-09-28T03:25:08.938Z,11.70
2022-09-28T03:27:36.765Z,11.70
2022-09-28T03:30:05.743Z,11.70
2022-09-28T03:32:35.003Z,11.80
2022-09-28T03:35:02.818Z,11.70
2022-09-28T03:37:30.633Z,11.70
2022-09-28T03:39:58.440Z,11.70
2022-09-28T03:42:26.243Z,11.60
2022-09-28T03:44:54.035Z,11.60
2022-09-28T03:47:21.869Z,11.60
2022-09-28T03:49:51.013Z,11.50
2022-09-28T03:52:18.780Z,11.50
2022-09-28T03:54:49.201Z,11.40
2022-09-28T03:57:17.299Z,11.40
2022-09-28T03:59:45.100Z,11.30
2022-09-28T04:02:12.994Z,11.30
2022-09-28T04:04:40.805Z,11.30
2022-09-28T04:07:09.945Z,11.30
2022-09-28T04:09:37.738Z,11.40
2022-09-28T04:12:05.816Z,11.30
2022-09-28T04:14:33.684Z,11.30
2022-09-28T04:17:01.729Z,11.30
2022-09-28T04:19:29.495Z,11.40
2022-09-28T04:21:57.294Z,11.30
2022-09-28T04:24:26.552Z,11.40
2022-09-28T04:27:14.348Z,11.40
2022-09-28T04:29:43.900Z,11.40
2022-09-28T04:32:12.764Z,11.40
2022-09-28T04:34:43.927Z,11.50
2022-09-28T04:37:12.342Z,11.50
2022-09-28T04:39:45.019Z,11.50
2022-09-28T04:42:15.811Z,11.50
2022-09-28T04:44:43.683Z,11.50
2022-09-28T04:47:11.464Z,11.50
2022-09-28T04:49:39.263Z,11.50
2022-09-28T04:52:07.518Z,11.40
2022-09-28T04:54:35.536Z,11.40
2022-09-28T04:57:06.031Z,11.50
2022-09-28T04:59:34.063Z,11.50
2022-09-28T05:02:01.916Z,11.50
2022-09-28T05:04:30.485Z,11.60
2022-09-28T05:06:58.315Z,11.50
2022-09-28T05:09:26.112Z,11.60
2022-09-28T05:11:53.956Z,11.60
2022-09-28T05:14:23.078Z,11.60
2022-09-28T05:16:50.934Z,11.60
2022-09-28T05:19:18.981Z,11.60
2022-09-28T05:21:48.690Z,11.60
2022-09-28T05:24:16.502Z,11.60
2022-09-28T05:26:44.292Z,11.60
2022-09-28T05:29:12.215Z,11.60
2022-09-28T05:31:41.473Z,11.70
2022-09-28T05:34:09.262Z,11.70
2022-09-28T05:36:39.073Z,11.70
2022-09-28T05:39:07.022Z,11.60
2022-09-28T05:41:34.830Z,11.70
2022-09-28T05:44:04.006Z,11.70
2022-09-28T05:46:32.059Z,11.70
2022-09-28T05:49:01.299Z,11.70
2022-09-28T05:51:29.117Z,11.80
2022-09-28T05:53:58.831Z,11.80
2022-09-28T05:56:31.025Z,11.70
2022-09-28T05:58:59.374Z,11.70
2022-09-28T06:01:27.291Z,11.70
2022-09-28T06:03:55.136Z,11.60
2022-09-28T06:06:24.313Z,11.80
2022-09-28T06:08:52.142Z,11.70
2022-09-28T06:11:19.904Z,11.80
2022-09-28T06:13:47.707Z,11.80
2022-09-28T06:16:16.414Z,11.90
2022-09-28T06:18:44.243Z,11.80
2022-09-28T06:21:13.652Z,11.80
2022-09-28T06:23:48.173Z,11.80
2022-09-28T06:26:17.768Z,11.90
2022-09-28T06:28:45.671Z,11.90
2022-09-28T06:31:13.588Z,11.80
2022-09-28T06:33:42.241Z,11.80
2022-09-28T06:36:10.293Z,11.70
2022-09-28T06:38:38.103Z,11.70
2022-09-28T06:41:07.408Z,11.70
2022-09-28T06:43:35.272Z,11.60
2022-09-28T06:46:03.457Z,11.60
2022-09-28T06:48:33.435Z,11.60
2022-09-28T06:51:01.840Z,11.50
2022-09-28T06:53:30.323Z,11.50
2022-09-28T06:55:58.148Z,11.50
2022-09-28T06:58:28.155Z,11.40
2022-09-28T07:00:59.972Z,11.40
2022-09-28T07:03:28.553Z,11.40
2022-09-28T07:05:57.375Z,11.40
2022-09-28T07:08:28.659Z,11.30
2022-09-28T07:10:57.211Z,11.30
2022-09-28T07:13:49.083Z,11.30
2022-09-28T07:16:17.465Z,11.30
2022-09-28T07:18:45.757Z,11.20
2022-09-28T07:21:25.440Z,11.20
2022-09-28T07:23:54.775Z,11.10
2022-09-28T07:26:24.631Z,11.20
2022-09-28T07:28:54.205Z,11.10
2022-09-28T07:31:25.133Z,11.10
2022-09-28T07:33:53.922Z,11.10
2022-09-28T07:36:22.695Z,11.20
2022-09-28T07:38:50.872Z,11.20
2022-09-28T07:41:26.906Z,11.10
2022-09-28T07:43:56.014Z,11.00
2022-09-28T07:46:24.218Z,11.10
2022-09-28T07:48:53.639Z,11.10
2022-09-28T07:51:21.522Z,11.20
2022-09-28T07:53:49.295Z,11.20
2022-09-28T07:56:18.220Z,11.20
2022-09-28T07:58:48.442Z,11.20
2022-09-28T08:01:19.146Z,11.10
2022-09-28T08:03:48.036Z,11.20
2022-09-28T08:06:17.613Z,11.20
2022-09-28T08:08:46.128Z,11.10
2022-09-28T08:11:16.585Z,11.00
2022-09-28T08:13:45.685Z,11.00
2022-09-28T08:16:13.985Z,11.10
2022-09-28T08:18:43.248Z,11.10
2022-09-28T08:21:29.002Z,11.00
2022-09-28T08:23:57.122Z,10.90
2022-09-28T08:26:24.880Z,11.00
2022-09-28T08:28:52.721Z,11.10
2022-09-28T08:31:20.567Z,11.20
2022-09-28T08:33:52.997Z,11.10
2022-09-28T08:36:21.614Z,11.20
2022-09-28T08:38:49.432Z,11.30
2022-09-28T08:41:21.883Z,11.30
2022-09-28T08:44:09.204Z,11.20
2022-09-28T08:46:40.579Z,11.20
2022-09-28T08:49:24.942Z,11.20
2022-09-28T08:52:00.035Z,11.10
2022-09-28T08:54:37.586Z,11.00
2022-09-28T08:57:10.263Z,11.10
2022-09-28T08:59:46.585Z,11.10
2022-09-28T09:02:18.136Z,11.20
2022-09-28T09:04:47.414Z,11.20
2022-09-28T09:07:44.642Z,11.20
2022-09-28T09:10:21.855Z,11.20
2022-09-28T09:12:58.547Z,11.30
2022-09-28T09:15:42.168Z,11.20
2022-09-28T09:18:22.395Z,11.40
2022-09-28T09:20:56.467Z,11.40
2022-09-28T09:23:35.951Z,11.30
2022-09-28T09:26:10.959Z,11.40
2022-09-28T09:29:07.274Z,11.50
2022-09-28T09:31:50.073Z,11.50
2022-09-28T09:34:42.835Z,11.50
2022-09-28T09:37:36.977Z,11.50
2022-09-28T09:40:19.062Z,11.60
2022-09-28T09:42:56.655Z,11.50
2022-09-28T09:45:42.969Z,11.30
2022-09-28T09:48:16.234Z,11.30
2022-09-28T09:50:49.896Z,11.40
2022-09-28T09:53:25.175Z,11.40
2022-09-28T09:55:57.285Z,11.30
2022-09-28T09:58:30.296Z,11.30
2022-09-28T10:01:06.783Z,11.40
2022-09-28T10:03:37.503Z,11.40
2022-09-28T10:06:09.448Z,11.40
2022-09-28T10:08:42.618Z,11.40
2022-09-28T10:11:13.740Z,11.40
2022-09-28T10:13:42.777Z,11.50
2022-09-28T10:16:10.550Z,11.60
2022-09-28T10:18:39.855Z,11.60
2022-09-28T10:21:07.800Z,11.40
2022-09-28T10:23:40.488Z,11.50
2022-09-28T10:26:13.415Z,11.50
2022-09-28T10:28:48.384Z,11.50
2022-09-28T10:31:35.958Z,11.50
2022-09-28T10:34:04.489Z,11.70
2022-09-28T10:36:38.229Z,11.70
2022-09-28T10:39:07.587Z,11.60
2022-09-28T10:41:35.675Z,11.70
2022-09-28T10:44:07.350Z,11.60
2022-09-28T10:46:36.505Z,11.60
2022-09-28T10:49:07.874Z,11.60
2022-09-28T10:51:42.325Z,11.70
2022-09-28T10:54:16.991Z,11.70
2022-09-28T10:56:46.104Z,11.60
2022-09-28T10:59:39.155Z,11.60
2022-09-28T11:02:21.515Z,11.50
2022-09-28T11:04:55.302Z,11.50
2022-09-28T11:07:26.610Z,11.50
2022-09-28T11:09:56.692Z,11.40
2022-09-28T11:12:26.696Z,11.40
2022-09-28T11:14:59.590Z,11.40
2022-09-28T11:17:29.607Z,11.60
2022-09-28T11:19:58.948Z,11.50
2022-09-28T11:22:30.052Z,11.50
2022-09-28T11:25:24.481Z,11.50
2022-09-28T11:28:01.608Z,11.50
2022-09-28T11:30:33.729Z,11.50
2022-09-28T11:33:09.236Z,11.50
2022-09-28T11:35:47.091Z,11.50
2022-09-28T11:38:33.969Z,11.50
2022-09-28T11:41:25.986Z,11.50
2022-09-28T11:44:07.010Z,11.50
2022-09-28T11:46:46.337Z,11.60
2022-09-28T11:49:26.820Z,11.50
2022-09-28T11:51:58.090Z,11.40
2022-09-28T11:54:32.964Z,11.50
2022-09-28T11:57:04.584Z,11.50
2022-09-28T11:59:37.094Z,11.50
2022-09-28T12:02:16.720Z,11.40
2022-09-28T12:04:48.429Z,11.40
2022-09-28T12:07:19.959Z,11.50
2022-09-28T12:09:55.169Z,11.40
2022-09-28T12:12:28.985Z,11.40
2022-09-28T12:15:00.671Z,11.20
2022-09-28T12:17:35.535Z,11.30
2022-09-28T12:20:13.121Z,11.20
2022-09-28T12:22:45.340Z,11.20
2022-09-28T12:25:16.018Z,11.20
2022-09-28T12:27:51.495Z,11.10
2022-09-28T12:30:21.429Z,11.20
2022-09-28T12:32:53.946Z,11.20
2022-09-28T12:35:30.356Z,11.20
2022-09-28T12:38:16.291Z,11.30
2022-09-28T12:40:55.617Z,11.30
2022-09-28T12:44:00.460Z,11.30
2022-09-28T12:46:50.227Z,11.40
2022-09-28T12:52:36.399Z,11.30
2022-09-28T12:55:42.285Z,11.30
2022-09-28T12:58:25.673Z,11.10
2022-09-28T13:01:07.729Z,11.10
2022-09-28T13:04:00.483Z,11.10
2022-09-28T13:06:48.344Z,11.20
2022-09-28T13:09:21.839Z,11.30
2022-09-28T13:11:58.722Z,11.20
2022-09-28T13:14:54.343Z,11.20
2022-09-28T13:17:34.561Z,11.20
2022-09-28T13:20:15.600Z,11.10
2022-09-28T13:22:51.509Z,11.20
2022-09-28T13:25:21.824Z,11.20
2022-09-28T13:27:53.359Z,11.10
2022-09-28T13:30:21.450Z,11.10
2022-09-28T13:32:51.285Z,11.20
2022-09-28T13:35:20.384Z,11.10
2022-09-28T13:37:48.866Z,11.20
2022-09-28T13:40:17.254Z,11.20
2022-09-28T13:43:27.520Z,11.20
2022-09-28T13:45:58.579Z,11.10
2022-09-28T13:48:44.556Z,11.10
2022-09-28T13:51:26.352Z,11.10
2022-09-28T13:54:13.354Z,11.10
2022-09-28T13:56:50.667Z,11.20
2022-09-28T13:59:24.141Z,11.30
2022-09-28T14:01:55.821Z,11.20
2022-09-28T14:04:40.047Z,11.20
2022-09-28T14:07:12.159Z,11.30
2022-09-28T14:09:46.540Z,11.30
2022-09-28T14:12:44.107Z,11.20
2022-09-28T14:15:40.189Z,11.20
2022-09-28T14:18:19.072Z,11.20
2022-09-28T14:20:59.885Z,11.20
2022-09-28T14:23:48.306Z,11.30
2022-09-28T14:26:58.687Z,11.20
2022-09-28T14:29:29.170Z,11.30
2022-09-28T14:31:59.163Z,11.30
2022-09-28T14:34:34.090Z,11.20
2022-09-28T14:37:22.719Z,11.20
2022-09-28T14:40:08.594Z,11.20
2022-09-28T14:42:36.437Z,11.20
2022-09-28T14:45:36.619Z,11.20
2022-09-28T14:48:18.971Z,11.20
2022-09-28T14:50:48.841Z,11.20
2022-09-28T14:53:22.983Z,11.20
2022-09-28T14:55:55.426Z,11.30
2022-09-28T14:58:26.732Z,11.40
2022-09-28T15:01:03.232Z,11.30
2022-09-28T15:03:34.089Z,11.20
2022-09-28T15:06:02.684Z,11.20
2022-09-28T15:08:41.174Z,11.10
2022-09-28T15:11:15.810Z,11.10
2022-09-28T15:13:44.412Z,11.10
2022-09-28T15:16:14.493Z,11.10
2022-09-28T15:19:13.352Z,11.10
2022-09-28T15:21:43.533Z,11.10
2022-09-28T15:24:37.032Z,11.20
2022-09-28T15:27:15.460Z,11.10
2022-09-28T15:29:53.878Z,11.10
2022-09-28T15:32:25.313Z,11.30
2022-09-28T15:34:52.387Z,11.20
2022-09-28T15:37:22.746Z,11.00
2022-09-28T15:39:53.538Z,11.10
2022-09-28T15:42:22.676Z,11.10
2022-09-28T15:45:27.409Z,11.00
2022-09-28T15:47:58.512Z,11.00
2022-09-28T15:50:29.073Z,11.00
2022-09-28T15:53:00.725Z,11.00
2022-09-28T15:55:32.872Z,10.90
2022-09-28T15:58:07.578Z,10.70
2022-09-28T16:00:36.255Z,10.80
2022-09-28T16:03:19.946Z,10.80
2022-09-28T16:05:50.498Z,10.80
2022-09-28T16:08:25.564Z,10.90
2022-09-28T16:11:09.052Z,11.00
2022-09-28T16:13:37.716Z,11.00
2022-09-28T16:16:05.884Z,10.90
2022-09-28T16:18:36.848Z,10.90
2022-09-28T16:21:25.412Z,10.80
2022-09-28T16:23:55.734Z,10.80
2022-09-28T16:26:31.272Z,10.80
2022-09-28T16:28:59.759Z,10.70
2022-09-28T16:31:34.469Z,10.70
2022-09-28T16:34:17.573Z,10.60
2022-09-28T16:36:47.683Z,10.60
2022-09-28T16:39:16.670Z,10.60
2022-09-28T16:41:50.010Z,10.50
2022-09-28T16:44:25.834Z,10.50
2022-09-28T16:46:56.871Z,10.50
2022-09-28T16:49:26.761Z,10.50
2022-09-28T16:51:54.831Z,10.60
2022-09-28T16:54:41.828Z,10.50
2022-09-28T16:57:13.494Z,10.50
2022-09-28T16:59:41.348Z,10.50
2022-09-28T17:02:42.266Z,10.50
2022-09-28T17:05:07.345Z,10.50
2022-09-28T17:07:35.521Z,10.40
2022-09-28T17:10:03.500Z,10.30
2022-09-28T17:12:32.634Z,10.20
2022-09-28T17:15:00.845Z,10.10
2022-09-28T17:17:31.409Z,10.20
2022-09-28T17:19:59.304Z,10.10
2022-09-28T17:22:27.182Z,10.20
2022-09-28T17:24:54.990Z,10.20
2022-09-28T17:27:22.793Z,10.30
2022-09-28T17:29:51.923Z,10.30
2022-09-28T17:32:20.626Z,10.30
2022-09-28T17:35:00.867Z,10.20
2022-09-28T17:37:36.156Z,10.30
2022-09-28T17:40:04.127Z,10.20
2022-09-28T17:42:31.917Z,10.20
2022-09-28T17:45:01.035Z,10.20
2022-09-28T17:47:34.069Z,10.10
2022-09-28T17:50:02.177Z,10.10
2022-09-28T17:52:29.962Z,10.10
2022-09-28T17:54:57.731Z,10.10
2022-09-28T17:57:26.055Z,10.10
2022-09-28T17:59:53.912Z,10.20
2022-09-28T18:02:25.074Z,10.20
2022-09-28T18:04:52.932Z,10.10
2022-09-28T18:07:20.780Z,10.10
2022-09-28T18:09:48.610Z,9.90
2022-09-28T18:12:16.438Z,9.80
2022-09-28T18:14:44.233Z,9.80
2022-09-28T18:17:12.046Z,9.80
2022-09-28T18:19:41.189Z,9.80
2022-09-28T18:22:08.979Z,9.90
2022-09-28T18:24:36.823Z,10.00
2022-09-28T18:27:05.322Z,10.10
2022-09-28T18:29:33.725Z,10.00
2022-09-28T18:32:02.321Z,10.00
2022-09-28T18:34:30.124Z,10.00
2022-09-28T18:36:59.253Z,10.10
2022-09-28T18:39:27.368Z,10.10
2022-09-28T18:41:56.031Z,10.10
2022-09-28T18:44:24.135Z,10.10
2022-09-28T18:46:51.943Z,10.10
2022-09-28T18:49:19.845Z,10.00
2022-09-28T18:51:48.288Z,10.00
2022-09-28T18:54:18.025Z,10.10
2022-09-28T18:56:45.856Z,10.00
2022-09-28T18:59:14.142Z,10.10
2022-09-28T19:01:42.663Z,10.00
2022-09-28T19:04:12.056Z,10.00
2022-09-28T19:06:41.489Z,10.00
2022-09-28T19:09:10.033Z,10.00
2022-09-28T19:11:39.261Z,10.10
2022-09-28T19:14:07.116Z,10.00
2022-09-28T19:16:34.960Z,10.00
2022-09-28T19:19:03.278Z,9.90
2022-09-28T19:21:31.748Z,10.00
2022-09-28T19:24:01.718Z,10.00
2022-09-28T19:26:30.464Z,10.10
2022-09-28T19:29:00.680Z,10.10
2022-09-28T19:31:29.484Z,10.20
2022-09-28T19:33:57.487Z,10.10
2022-09-28T19:36:28.378Z,10.10
2022-09-28T19:38:57.612Z,10.10
2022-09-28T19:41:44.397Z,10.00
2022-09-28T19:44:24.253Z,10.10
2022-09-28T19:46:54.624Z,10.00
2022-09-28T19:49:23.784Z,10.10
2022-09-28T19:52:13.789Z,10.10
2022-09-28T19:54:43.859Z,10.10
2022-09-28T19:57:12.266Z,10.00
2022-09-28T19:59:41.530Z,10.00
2022-09-28T20:02:11.265Z,9.90
2022-09-28T20:04:39.171Z,9.90
2022-09-28T20:07:07.370Z,10.00
2022-09-28T20:09:35.197Z,10.00
2022-09-28T20:12:03.090Z,10.00
2022-09-28T20:14:36.338Z,10.10
2022-09-28T20:17:07.343Z,10.10
2022-09-28T20:19:35.362Z,10.20
2022-09-28T20:22:03.609Z,10.20
2022-09-28T20:24:31.920Z,10.20
2022-09-28T20:27:01.154Z,10.10
2022-09-28T20:29:31.427Z,10.00
2022-09-28T20:31:59.320Z,10.10
2022-09-28T20:34:28.686Z,10.10
2022-09-28T20:36:56.526Z,10.10
2022-09-28T20:39:24.343Z,10.10
2022-09-28T20:41:52.286Z,10.00
2022-09-28T20:44:20.347Z,9.90
2022-09-28T20:46:50.904Z,10.00
2022-09-28T20:49:18.751Z,9.90
2022-09-28T20:51:47.902Z,10.00
2022-09-28T20:54:15.725Z,10.00
2022-09-28T20:56:43.498Z,10.10
2022-09-28T20:59:12.858Z,10.30
2022-09-28T21:01:41.609Z,10.20
2022-09-28T21:04:10.667Z,10.10
2022-09-28T21:06:40.136Z,10.10
2022-09-28T21:09:11.069Z,10.10
2022-09-28T21:11:40.105Z,10.20
2022-09-28T21:14:10.236Z,10.20
2022-09-28T21:16:38.360Z,10.20
2022-09-28T21:19:06.241Z,10.10
2022-09-28T21:21:34.364Z,10.10
2022-09-28T21:24:03.016Z,10.20
2022-09-28T21:26:32.763Z,10.20
2022-09-28T21:29:02.050Z,10.20
2022-09-28T21:31:32.547Z,10.30
2022-09-28T21:34:00.928Z,10.30
2022-09-28T21:36:28.796Z,10.30
2022-09-28T21:38:56.657Z,10.20
2022-09-28T21:41:24.741Z,10.20
2022-09-28T21:43:53.891Z,10.20
2022-09-28T21:46:21.837Z,10.10
2022-09-28T21:48:52.597Z,10.00
2022-09-28T21:51:21.097Z,10.00
2022-09-28T21:53:49.595Z,10.10
2022-09-28T21:56:17.489Z,10.00
2022-09-28T21:58:45.328Z,10.10
2022-09-28T22:01:18.052Z,10.10
2022-09-28T22:03:47.850Z,10.10
2022-09-28T22:06:18.304Z,10.10
2022-09-28T22:08:46.885Z,10.10
2022-09-28T22:11:16.752Z,10.00
2022-09-28T22:13:46.383Z,10.00
2022-09-28T22:16:17.515Z,10.00
2022-09-28T22:18:45.774Z,10.10
2022-09-28T22:21:15.502Z,10.10
2022-09-28T22:23:44.168Z,10.10
2022-09-28T22:26:17.645Z,10.10
2022-09-28T22:28:47.714Z,10.10
2022-09-28T22:31:18.713Z,10.00
2022-09-28T22:33:46.864Z,10.00
2022-09-28T22:36:16.628Z,10.00
2022-09-28T22:38:45.237Z,10.00
2022-09-28T22:41:14.493Z,10.00
2022-09-28T22:43:42.801Z,9.90
2022-09-28T22:46:12.716Z,9.90
2022-09-28T22:48:43.183Z,9.90
2022-09-28T22:51:10.976Z,9.90
2022-09-28T22:53:38.933Z,9.90
2022-09-28T22:56:09.460Z,9.90
2022-09-28T22:58:38.626Z,9.90
2022-09-28T23:01:08.182Z,9.90
2022-09-28T23:03:36.894Z,9.90
2022-09-28T23:06:06.148Z,9.80
2022-09-28T23:08:34.456Z,9.80
2022-09-28T23:11:02.459Z,9.90
2022-09-28T23:13:31.084Z,10.00
2022-09-28T23:16:00.138Z,10.00
2022-09-28T23:18:30.085Z,10.00
2022-09-28T23:20:59.305Z,10.10
2022-09-28T23:23:29.340Z,10.10
2022-09-28T23:25:57.619Z,10.10
2022-09-28T23:28:27.332Z,10.10
2022-09-28T23:30:55.402Z,10.00
2022-09-28T23:33:23.667Z,10.00
2022-09-28T23:35:51.691Z,10.00
2022-09-28T23:38:19.939Z,10.00
2022-09-28T23:40:49.180Z,10.00
2022-09-28T23:43:17.045Z,10.00
2022-09-28T23:45:44.891Z,10.00
2022-09-28T23:48:15.158Z,10.00
2022-09-28T23:50:43.400Z,10.00
2022-09-28T23:53:11.762Z,10.10
2022-09-28T23:55:39.554Z,10.00
2022-09-28T23:58:08.787Z,10.00
